Time;durP1;ratioP1;P1;durP2;ratioP2;P2;SDS_P1;SDS_P2;PMS_P1;PMS_P2;Temp;Humidity;BMP_temperature;BMP_pressure;BME280_temperature;BME280_humidity;BME280_pressure;Samples;Min_cycle;Max_cycle;Signal;HPM_P1;HPM_P2
2023/02/28 00:02:24;;;;;;;3.63;2.10;;;;;;;;;;5073162;28;20429;-71
2023/02/28 00:04:52;;;;;;;6.30;2.53;;;;;;;;;;5050530;28;20207;-71
2023/02/28 00:07:18;;;;;;;4.30;1.97;;;;;;;;;;5056486;28;20182;-71
2023/02/28 00:09:43;;;;;;;5.17;2.30;;;;;;;;;;5064781;28;20470;-71
2023/02/28 00:12:10;;;;;;;5.97;2.30;;;;;;;;;;5070440;28;20190;-71
2023/02/28 00:14:36;;;;;;;4.33;2.30;;;;;;;;;;5054328;28;20263;-71
2023/02/28 00:17:01;;;;;;;5.90;2.57;;;;;;;;;;5072761;28;20446;-68
2023/02/28 00:19:26;;;;;;;4.60;2.50;;;;;;;;;;5069621;28;20280;-68
2023/02/28 00:21:51;;;;;;;5.07;2.97;;;;;;;;;;5056588;28;20175;-69
2023/02/28 00:24:17;;;;;;;7.90;2.33;;;;;;;;;;5066491;28;20215;-69
2023/02/28 00:26:42;;;;;;;5.90;2.37;;;;;;;;;;5061661;28;20284;-68
2023/02/28 00:29:07;;;;;;;5.53;2.53;;;;;;;;;;5087384;28;20201;-68
2023/02/28 00:31:32;;;;;;;5.10;2.87;;;;;;;;;;5048356;28;20183;-68
2023/02/28 00:33:58;;;;;;;4.70;2.13;;;;;;;;;;5052058;28;20233;-69
2023/02/28 00:36:23;;;;;;;3.80;2.43;;;;;;;;;;5059971;28;20629;-68
2023/02/28 00:38:48;;;;;;;7.40;2.87;;;;;;;;;;5063642;28;20642;-68
2023/02/28 00:41:14;;;;;;;7.53;2.63;;;;;;;;;;5061484;28;20184;-68
2023/02/28 00:43:39;;;;;;;6.63;3.00;;;;;;;;;;5059091;28;20205;-68
2023/02/28 00:46:04;;;;;;;5.60;3.10;;;;;;;;;;5046324;28;20220;-68
2023/02/28 00:48:30;;;;;;;3.17;2.53;;;;;;;;;;5065034;28;20202;-69
2023/02/28 00:50:55;;;;;;;7.67;3.07;;;;;;;;;;5067857;28;20631;-68
2023/02/28 00:53:21;;;;;;;3.80;2.60;;;;;;;;;;5072586;28;20547;-69
2023/02/28 00:55:47;;;;;;;3.87;2.40;;;;;;;;;;5057417;28;20244;-69
2023/02/28 00:58:12;;;;;;;7.00;3.60;;;;;;;;;;5072517;28;20410;-69
2023/02/28 01:00:37;;;;;;;5.80;3.10;;;;;;;;;;5071416;28;20175;-71
2023/02/28 01:03:03;;;;;;;11.47;3.00;;;;;;;;;;5071738;28;20723;-69
2023/02/28 01:05:28;;;;;;;4.00;2.60;;;;;;;;;;5071279;28;20210;-69
2023/02/28 01:07:53;;;;;;;7.47;3.03;;;;;;;;;;5067911;28;20679;-69
2023/02/28 01:10:20;;;;;;;9.97;2.87;;;;;;;;;;5075245;28;20190;-69
2023/02/28 01:12:45;;;;;;;10.03;3.23;;;;;;;;;;5041975;28;20179;-69
2023/02/28 01:15:11;;;;;;;6.53;3.10;;;;;;;;;;5077251;28;20946;-68
2023/02/28 01:17:36;;;;;;;6.70;3.13;;;;;;;;;;5061715;28;20254;-69
2023/02/28 01:20:01;;;;;;;4.37;3.03;;;;;;;;;;5066324;28;20566;-69
2023/02/28 01:22:27;;;;;;;4.43;2.90;;;;;;;;;;5068510;28;20197;-69
2023/02/28 01:24:52;;;;;;;7.57;2.90;;;;;;;;;;5068523;28;20662;-71
2023/02/28 01:27:18;;;;;;;4.97;3.40;;;;;;;;;;5073385;28;20266;-71
2023/02/28 01:29:43;;;;;;;10.00;4.60;;;;;;;;;;5054535;28;20818;-69
2023/02/28 01:32:08;;;;;;;4.97;3.30;;;;;;;;;;5077947;28;20851;-69
2023/02/28 01:34:33;;;;;;;7.00;4.00;;;;;;;;;;5074046;28;20195;-69
2023/02/28 01:36:59;;;;;;;6.13;3.73;;;;;;;;;;5060642;28;20640;-69
2023/02/28 01:39:25;;;;;;;4.83;3.57;;;;;;;;;;5066803;28;20256;-72
2023/02/28 01:41:50;;;;;;;7.40;3.83;;;;;;;;;;5036166;28;20198;-71
2023/02/28 01:44:34;;;;;;;5.70;4.33;;;;;;;;;;5063764;28;20514;-71
2023/02/28 01:46:59;;;;;;;9.40;4.20;;;;;;;;;;5060154;28;20274;-71
2023/02/28 01:49:24;;;;;;;6.67;3.97;;;;;;;;;;5064087;28;20550;-71
2023/02/28 01:51:51;;;;;;;7.47;4.10;;;;;;;;;;5066797;28;20601;-71
2023/02/28 01:54:20;;;;;;;5.40;4.10;;;;;;;;;;5043397;28;20208;-71
2023/02/28 01:56:50;;;;;;;6.00;4.10;;;;;;;;;;5064850;28;20447;-72
2023/02/28 01:59:21;;;;;;;6.20;3.70;;;;;;;;;;5060014;28;20531;-71
2023/02/28 02:01:47;;;;;;;7.10;4.00;;;;;;;;;;5049663;28;21267;-71
2023/02/28 02:04:12;;;;;;;6.37;4.00;;;;;;;;;;5061869;28;20460;-71
2023/02/28 02:06:39;;;;;;;5.40;3.80;;;;;;;;;;5049962;28;20274;-71
2023/02/28 02:09:05;;;;;;;6.20;4.07;;;;;;;;;;5047416;28;20952;-71
2023/02/28 02:11:31;;;;;;;6.60;4.23;;;;;;;;;;5049859;28;20521;-72
2023/02/28 02:14:10;;;;;;;5.03;4.00;;;;;;;;;;5067465;28;20552;-71
2023/02/28 02:16:42;;;;;;;7.10;4.67;;;;;;;;;;5049418;28;20616;-71
2023/02/28 02:19:07;;;;;;;5.90;4.20;;;;;;;;;;5058373;28;20943;-71
2023/02/28 02:21:51;;;;;;;8.73;4.20;;;;;;;;;;5066743;28;20480;-71
2023/02/28 02:24:30;;;;;;;6.63;4.27;;;;;;;;;;5051720;28;20600;-72
2023/02/28 02:27:02;;;;;;;6.23;3.97;;;;;;;;;;5068680;28;20944;-71
2023/02/28 02:29:42;;;;;;;5.03;4.10;;;;;;;;;;5062065;28;20473;-71
2023/02/28 02:32:13;;;;;;;4.20;3.80;;;;;;;;;;5066079;28;20438;-71
2023/02/28 02:34:38;;;;;;;9.43;4.13;;;;;;;;;;5068306;28;20457;-71
2023/02/28 02:37:22;;;;;;;9.13;4.20;;;;;;;;;;5064061;28;20424;-71
2023/02/28 02:39:53;;;;;;;5.53;3.90;;;;;;;;;;5070609;28;20179;-71
2023/02/28 02:42:28;;;;;;;5.57;3.60;;;;;;;;;;5067144;28;20992;-71
2023/02/28 02:44:58;;;;;;;4.70;3.83;;;;;;;;;;5053129;28;20864;-71
2023/02/28 02:47:25;;;;;;;6.60;3.70;;;;;;;;;;5064278;28;20433;-71
2023/02/28 02:49:52;;;;;;;5.80;4.10;;;;;;;;;;5063970;28;20547;-71
2023/02/28 02:52:21;;;;;;;7.47;3.33;;;;;;;;;;5049359;28;20512;-71
2023/02/28 02:54:47;;;;;;;6.83;3.60;;;;;;;;;;5052332;28;20457;-72
2023/02/28 02:57:25;;;;;;;7.33;3.90;;;;;;;;;;5055959;28;20428;-71
2023/02/28 02:59:50;;;;;;;4.33;3.63;;;;;;;;;;5066803;28;20445;-71
2023/02/28 03:02:17;;;;;;;7.70;3.57;;;;;;;;;;5049124;28;20495;-71
2023/02/28 03:04:46;;;;;;;5.60;3.63;;;;;;;;;;5068287;28;20199;-72
2023/02/28 03:07:11;;;;;;;4.60;3.10;;;;;;;;;;5067005;28;20448;-71
2023/02/28 03:09:36;;;;;;;5.63;3.53;;;;;;;;;;5044366;28;20460;-71
2023/02/28 03:12:02;;;;;;;3.60;3.10;;;;;;;;;;5059957;28;20183;-71
2023/02/28 03:14:37;;;;;;;3.30;3.00;;;;;;;;;;5049081;28;20305;-71
2023/02/28 03:17:14;;;;;;;5.57;4.20;;;;;;;;;;5057601;28;20549;-71
2023/02/28 03:19:42;;;;;;;5.33;3.40;;;;;;;;;;5059986;28;20939;-71
2023/02/28 03:22:19;;;;;;;6.27;4.03;;;;;;;;;;5072918;28;20440;-71
2023/02/28 03:24:57;;;;;;;5.33;3.70;;;;;;;;;;5067478;28;20455;-71
2023/02/28 03:27:22;;;;;;;3.97;3.40;;;;;;;;;;5069357;28;20923;-71
2023/02/28 03:29:50;;;;;;;4.17;3.13;;;;;;;;;;5072202;28;20454;-71
2023/02/28 03:32:24;;;;;;;6.47;4.03;;;;;;;;;;5071191;28;20190;-71
2023/02/28 03:35:03;;;;;;;4.53;3.53;;;;;;;;;;5057743;28;20444;-71
2023/02/28 03:37:31;;;;;;;4.70;3.73;;;;;;;;;;5048858;28;20428;-71
2023/02/28 03:39:59;;;;;;;4.33;3.50;;;;;;;;;;5076887;28;20409;-71
2023/02/28 03:42:29;;;;;;;3.57;3.27;;;;;;;;;;5054363;28;20476;-71
2023/02/28 03:44:59;;;;;;;3.40;3.10;;;;;;;;;;5055144;28;20594;-71
2023/02/28 03:47:27;;;;;;;3.30;3.00;;;;;;;;;;5052654;28;20433;-71
2023/02/28 03:49:52;;;;;;;3.33;2.80;;;;;;;;;;5073131;28;20515;-71
2023/02/28 03:52:19;;;;;;;2.97;2.77;;;;;;;;;;5072900;28;20929;-70
2023/02/28 03:54:47;;;;;;;4.33;3.90;;;;;;;;;;5049891;28;20279;-71
2023/02/28 03:57:28;;;;;;;3.73;3.20;;;;;;;;;;5059029;28;20428;-70
2023/02/28 03:59:56;;;;;;;4.23;3.63;;;;;;;;;;5067543;28;20445;-71
2023/02/28 04:02:23;;;;;;;7.37;3.20;;;;;;;;;;5047781;28;20465;-71
2023/02/28 04:04:48;;;;;;;3.53;3.17;;;;;;;;;;5068748;28;20471;-70
2023/02/28 04:07:14;;;;;;;3.07;2.77;;;;;;;;;;5066816;28;20174;-72
2023/02/28 04:09:40;;;;;;;4.47;3.50;;;;;;;;;;5047952;28;20218;-71
2023/02/28 04:12:05;;;;;;;4.40;3.27;;;;;;;;;;5041101;28;20438;-70
2023/02/28 04:14:30;;;;;;;3.57;2.73;;;;;;;;;;5066023;28;20222;-71
2023/02/28 04:16:56;;;;;;;3.50;3.03;;;;;;;;;;5071626;28;20190;-71
2023/02/28 04:19:21;;;;;;;4.03;3.47;;;;;;;;;;5062827;28;20269;-71
2023/02/28 04:21:50;;;;;;;4.60;3.70;;;;;;;;;;5069976;28;20191;-71
2023/02/28 04:24:17;;;;;;;4.20;3.50;;;;;;;;;;5047890;28;20207;-70
2023/02/28 04:26:44;;;;;;;4.17;3.77;;;;;;;;;;5047182;28;20432;-71
2023/02/28 04:29:10;;;;;;;4.20;3.80;;;;;;;;;;5061366;28;20465;-71
2023/02/28 04:31:35;;;;;;;5.13;3.73;;;;;;;;;;5049203;28;20442;-72
2023/02/28 04:34:01;;;;;;;4.03;3.40;;;;;;;;;;5059070;28;20502;-70
2023/02/28 04:36:26;;;;;;;4.40;3.33;;;;;;;;;;5052954;28;20747;-71
2023/02/28 04:38:51;;;;;;;5.33;3.80;;;;;;;;;;5047449;28;20186;-71
2023/02/28 04:41:17;;;;;;;4.07;3.67;;;;;;;;;;5055490;28;20190;-71
2023/02/28 04:43:42;;;;;;;9.13;4.60;;;;;;;;;;5074961;28;20202;-71
2023/02/28 04:46:08;;;;;;;5.20;4.00;;;;;;;;;;5070318;28;20557;-71
2023/02/28 04:48:35;;;;;;;5.00;3.73;;;;;;;;;;5068602;28;20773;-71
2023/02/28 04:51:05;;;;;;;5.83;4.03;;;;;;;;;;5073050;28;20218;-71
2023/02/28 04:53:30;;;;;;;4.90;4.10;;;;;;;;;;5065902;28;20440;-71
2023/02/28 04:55:56;;;;;;;5.63;5.03;;;;;;;;;;5076540;28;20427;-71
2023/02/28 04:58:23;;;;;;;6.30;4.40;;;;;;;;;;5048909;28;20191;-71
2023/02/28 05:00:49;;;;;;;5.70;4.40;;;;;;;;;;5068752;28;20189;-71
2023/02/28 05:03:14;;;;;;;5.83;4.40;;;;;;;;;;5071826;28;20437;-71
2023/02/28 05:05:39;;;;;;;5.17;4.43;;;;;;;;;;5077229;28;20626;-71
2023/02/28 05:08:05;;;;;;;5.40;4.27;;;;;;;;;;5073703;28;20171;-71
2023/02/28 05:10:30;;;;;;;6.40;4.80;;;;;;;;;;5054944;28;20195;-71
2023/02/28 05:12:55;;;;;;;5.17;4.20;;;;;;;;;;5047241;28;20207;-71
2023/02/28 05:15:21;;;;;;;6.47;4.70;;;;;;;;;;5069214;28;20207;-71
2023/02/28 05:17:46;;;;;;;5.40;4.40;;;;;;;;;;5065922;28;20610;-72
2023/02/28 05:20:13;;;;;;;7.37;4.00;;;;;;;;;;5065415;28;20273;-71
2023/02/28 05:22:38;;;;;;;4.60;4.03;;;;;;;;;;5049034;28;21832;-71
2023/02/28 05:25:05;;;;;;;4.10;3.70;;;;;;;;;;5064868;28;20466;-71
2023/02/28 05:27:30;;;;;;;4.50;4.10;;;;;;;;;;5086357;28;20244;-71
2023/02/28 05:29:55;;;;;;;6.13;4.33;;;;;;;;;;5057622;28;20970;-71
2023/02/28 05:32:21;;;;;;;5.10;4.60;;;;;;;;;;5057510;28;20179;-71
2023/02/28 05:34:46;;;;;;;4.70;3.80;;;;;;;;;;5073720;28;20239;-72
2023/02/28 05:37:12;;;;;;;8.90;4.50;;;;;;;;;;5073623;28;20175;-71
2023/02/28 05:39:38;;;;;;;5.00;4.50;;;;;;;;;;5060837;28;20190;-72
2023/02/28 05:42:03;;;;;;;5.00;4.27;;;;;;;;;;5075981;28;20941;-71
2023/02/28 05:44:29;;;;;;;4.93;4.13;;;;;;;;;;5076559;28;20198;-72
2023/02/28 05:46:54;;;;;;;4.70;4.20;;;;;;;;;;5074293;28;20524;-71
2023/02/28 05:49:19;;;;;;;8.53;4.83;;;;;;;;;;5073487;28;20199;-71
2023/02/28 05:51:44;;;;;;;7.10;4.60;;;;;;;;;;5070379;28;20699;-71
2023/02/28 05:54:10;;;;;;;5.70;4.40;;;;;;;;;;5069829;28;20195;-71
2023/02/28 05:56:37;;;;;;;6.50;4.13;;;;;;;;;;5071947;28;20183;-71
2023/02/28 05:59:02;;;;;;;6.37;4.60;;;;;;;;;;5067669;28;20672;-71
2023/02/28 06:01:36;;;;;;;6.37;4.37;;;;;;;;;;5062959;28;20445;-71
2023/02/28 06:04:02;;;;;;;8.20;5.10;;;;;;;;;;5054168;28;20210;-71
2023/02/28 06:06:27;;;;;;;8.23;5.20;;;;;;;;;;5068289;28;20431;-72
2023/02/28 06:08:53;;;;;;;7.20;4.80;;;;;;;;;;5063652;28;20617;-70
2023/02/28 06:11:20;;;;;;;17.73;5.53;;;;;;;;;;5045361;28;20187;-71
2023/02/28 06:13:45;;;;;;;8.13;5.67;;;;;;;;;;5046642;28;20218;-69
2023/02/28 06:16:10;;;;;;;7.27;5.33;;;;;;;;;;5057632;28;20806;-69
2023/02/28 06:18:36;;;;;;;7.63;6.17;;;;;;;;;;5047410;28;20183;-69
2023/02/28 06:21:01;;;;;;;6.33;5.50;;;;;;;;;;5073472;28;20244;-69
2023/02/28 06:23:29;;;;;;;7.27;5.70;;;;;;;;;;5048575;28;20633;-67
2023/02/28 06:25:58;;;;;;;8.40;5.10;;;;;;;;;;5048930;28;20645;-71
2023/02/28 06:28:25;;;;;;;6.40;5.43;;;;;;;;;;5040723;28;21010;-71
2023/02/28 06:30:51;;;;;;;6.70;4.43;;;;;;;;;;5054702;28;20897;-71
2023/02/28 06:33:16;;;;;;;7.10;5.53;;;;;;;;;;5071035;28;20521;-71
2023/02/28 06:35:46;;;;;;;10.00;6.10;;;;;;;;;;5064210;28;20175;-71
2023/02/28 06:38:11;;;;;;;9.80;6.60;;;;;;;;;;5070838;28;20186;-70
2023/02/28 06:40:36;;;;;;;7.50;6.13;;;;;;;;;;5075819;28;20417;-72
2023/02/28 06:43:02;;;;;;;8.30;5.70;;;;;;;;;;5075948;28;20175;-71
2023/02/28 06:45:27;;;;;;;9.10;6.30;;;;;;;;;;5073309;28;20684;-71
2023/02/28 06:47:53;;;;;;;6.17;5.57;;;;;;;;;;5076630;28;20182;-71
2023/02/28 06:50:19;;;;;;;9.00;6.27;;;;;;;;;;5077320;28;20849;-71
2023/02/28 06:52:47;;;;;;;6.93;5.47;;;;;;;;;;5059884;28;20198;-71
2023/02/28 06:55:12;;;;;;;10.40;6.00;;;;;;;;;;5076094;28;20430;-71
2023/02/28 06:57:38;;;;;;;8.50;6.47;;;;;;;;;;5057400;28;20434;-69
2023/02/28 07:00:07;;;;;;;7.90;5.60;;;;;;;;;;5056193;28;20179;-70
2023/02/28 07:02:33;;;;;;;9.87;5.60;;;;;;;;;;5072785;28;20563;-70
2023/02/28 07:04:58;;;;;;;9.07;6.30;;;;;;;;;;5069837;28;20452;-70
2023/02/28 07:07:24;;;;;;;8.40;6.57;;;;;;;;;;5061668;28;20175;-70
2023/02/28 07:09:49;;;;;;;7.90;6.10;;;;;;;;;;5038201;28;20742;-70
2023/02/28 07:12:14;;;;;;;7.20;6.03;;;;;;;;;;5075148;28;20676;-69
2023/02/28 07:14:40;;;;;;;7.20;5.30;;;;;;;;;;5076593;28;20213;-69
2023/02/28 07:17:06;;;;;;;9.33;6.60;;;;;;;;;;5083028;28;20174;-70
2023/02/28 07:19:32;;;;;;;9.80;5.80;;;;;;;;;;5055944;28;20179;-70
2023/02/28 07:21:57;;;;;;;9.73;6.00;;;;;;;;;;5071887;28;20454;-70
2023/02/28 07:24:25;;;;;;;9.20;6.80;;;;;;;;;;5070703;28;20202;-69
2023/02/28 07:26:50;;;;;;;8.83;5.90;;;;;;;;;;5075260;28;20167;-70
2023/02/28 07:29:16;;;;;;;8.20;6.63;;;;;;;;;;5071670;28;20464;-70
2023/02/28 07:31:41;;;;;;;10.27;6.70;;;;;;;;;;5054240;28;20167;-70
2023/02/28 07:34:06;;;;;;;8.23;5.90;;;;;;;;;;5057525;28;20744;-70
2023/02/28 07:36:32;;;;;;;9.80;5.83;;;;;;;;;;5075520;28;20163;-70
2023/02/28 07:38:58;;;;;;;10.67;6.00;;;;;;;;;;5068328;28;20281;-70
2023/02/28 07:41:25;;;;;;;7.40;6.60;;;;;;;;;;5046984;28;20187;-71
2023/02/28 07:43:52;;;;;;;8.90;6.67;;;;;;;;;;5068567;28;20449;-70
2023/02/28 07:46:20;;;;;;;12.70;6.73;;;;;;;;;;5050229;28;20429;-71
2023/02/28 07:48:45;;;;;;;14.23;6.80;;;;;;;;;;5054166;28;20457;-70
2023/02/28 07:51:10;;;;;;;8.80;7.00;;;;;;;;;;5054807;28;20496;-71
2023/02/28 07:53:36;;;;;;;7.67;6.73;;;;;;;;;;5070529;28;20860;-70
2023/02/28 07:56:02;;;;;;;10.27;7.60;;;;;;;;;;5055340;28;20167;-70
2023/02/28 07:58:27;;;;;;;9.73;7.63;;;;;;;;;;5047256;28;20443;-71
2023/02/28 08:00:53;;;;;;;10.10;7.33;;;;;;;;;;5071278;28;20190;-71
2023/02/28 08:03:19;;;;;;;9.43;8.10;;;;;;;;;;5073286;28;20927;-68
2023/02/28 08:05:45;;;;;;;9.77;7.43;;;;;;;;;;5064853;28;20253;-68
2023/02/28 08:08:10;;;;;;;10.20;7.50;;;;;;;;;;5038587;28;20982;-68
2023/02/28 08:10:36;;;;;;;11.07;6.90;;;;;;;;;;5067863;28;20513;-69
2023/02/28 08:13:01;;;;;;;11.27;7.90;;;;;;;;;;5067048;28;20187;-69
2023/02/28 08:15:26;;;;;;;12.53;7.50;;;;;;;;;;5075367;28;20204;-69
2023/02/28 08:17:52;;;;;;;11.57;7.80;;;;;;;;;;5054384;28;20550;-69
2023/02/28 08:20:17;;;;;;;10.23;7.50;;;;;;;;;;5066199;28;20210;-70
2023/02/28 08:22:42;;;;;;;10.60;8.23;;;;;;;;;;5071929;28;20671;-69
2023/02/28 08:25:08;;;;;;;10.43;8.27;;;;;;;;;;5072795;28;20198;-70
2023/02/28 08:27:33;;;;;;;14.53;8.40;;;;;;;;;;5075441;28;20175;-70
2023/02/28 08:29:58;;;;;;;11.43;7.83;;;;;;;;;;5060443;28;21431;-71
2023/02/28 08:32:24;;;;;;;10.53;8.20;;;;;;;;;;5075191;28;20185;-70
2023/02/28 08:34:49;;;;;;;11.10;8.57;;;;;;;;;;5053027;28;20292;-70
2023/02/28 08:37:15;;;;;;;11.10;7.80;;;;;;;;;;5073829;28;20181;-70
2023/02/28 08:39:40;;;;;;;12.70;8.23;;;;;;;;;;5074938;28;20321;-70
2023/02/28 08:42:05;;;;;;;10.90;7.90;;;;;;;;;;5061373;28;20174;-70
2023/02/28 08:44:31;;;;;;;9.57;8.27;;;;;;;;;;5064945;28;20280;-70
2023/02/28 08:46:56;;;;;;;9.97;8.10;;;;;;;;;;5049645;28;20252;-70
2023/02/28 08:49:21;;;;;;;11.70;7.70;;;;;;;;;;5071360;28;20701;-70
2023/02/28 08:51:46;;;;;;;9.60;8.00;;;;;;;;;;5071397;28;20202;-70
2023/02/28 08:54:19;;;;;;;9.50;6.10;;;;;;;;;;5073905;28;20195;-70
2023/02/28 08:56:44;;;;;;;10.57;7.27;;;;;;;;;;5071352;28;20179;-70
2023/02/28 08:59:10;;;;;;;10.30;7.10;;;;;;;;;;5072104;28;21135;-69
2023/02/28 09:01:36;;;;;;;9.50;7.20;;;;;;;;;;5055329;28;20178;-70
2023/02/28 09:04:02;;;;;;;11.50;7.37;;;;;;;;;;5056680;28;20247;-70
2023/02/28 09:06:27;;;;;;;9.60;7.33;;;;;;;;;;5055111;28;20425;-70
2023/02/28 09:08:53;;;;;;;9.60;6.73;;;;;;;;;;5056150;28;20198;-70
2023/02/28 09:11:19;;;;;;;7.90;7.10;;;;;;;;;;5055366;28;20650;-70
2023/02/28 09:13:44;;;;;;;9.63;7.07;;;;;;;;;;5068595;28;20218;-70
2023/02/28 09:16:11;;;;;;;11.17;6.97;;;;;;;;;;5067474;28;20180;-70
2023/02/28 09:18:37;;;;;;;9.20;7.50;;;;;;;;;;5047053;28;20195;-70
2023/02/28 09:21:04;;;;;;;13.77;8.03;;;;;;;;;;5076199;28;20803;-70
2023/02/28 09:23:30;;;;;;;9.27;7.30;;;;;;;;;;5055782;28;20476;-70
2023/02/28 09:25:55;;;;;;;9.37;7.43;;;;;;;;;;5064144;28;21657;-70
2023/02/28 09:28:22;;;;;;;11.93;7.10;;;;;;;;;;5053828;28;20190;-70
2023/02/28 09:30:49;;;;;;;12.10;7.70;;;;;;;;;;5050700;28;20185;-70
2023/02/28 09:33:15;;;;;;;8.87;7.20;;;;;;;;;;5070996;28;20424;-71
2023/02/28 09:35:41;;;;;;;8.50;6.83;;;;;;;;;;5057336;28;20422;-70
2023/02/28 09:38:07;;;;;;;10.97;7.17;;;;;;;;;;5051839;28;20432;-70
2023/02/28 09:40:35;;;;;;;9.80;6.00;;;;;;;;;;5052999;28;20813;-70
2023/02/28 09:43:01;;;;;;;8.47;6.93;;;;;;;;;;5053465;28;20520;-70
2023/02/28 09:45:29;;;;;;;10.47;6.43;;;;;;;;;;5073174;28;20610;-70
2023/02/28 09:47:56;;;;;;;10.57;6.90;;;;;;;;;;5067954;28;20171;-70
2023/02/28 09:50:42;;;;;;;9.60;6.30;;;;;;;;;;5053464;28;20896;-69
2023/02/28 09:53:18;;;;;;;9.80;6.33;;;;;;;;;;5067538;28;20528;-70
2023/02/28 09:55:46;;;;;;;10.23;6.17;;;;;;;;;;5072608;28;20429;-70
2023/02/28 09:58:23;;;;;;;7.60;5.60;;;;;;;;;;5053116;28;20428;-70
2023/02/28 10:00:53;;;;;;;9.37;6.50;;;;;;;;;;5051272;28;20432;-71
2023/02/28 10:03:18;;;;;;;10.20;7.10;;;;;;;;;;5070992;28;20870;-71
2023/02/28 10:06:03;;;;;;;9.80;6.70;;;;;;;;;;5073986;28;20496;-71
2023/02/28 10:08:41;;;;;;;9.53;7.10;;;;;;;;;;5050329;28;20792;-71
2023/02/28 10:11:07;;;;;;;12.77;7.70;;;;;;;;;;5052891;28;21054;-71
2023/02/28 10:13:44;;;;;;;11.13;6.83;;;;;;;;;;5047594;28;20852;-70
2023/02/28 10:16:15;;;;;;;10.40;7.27;;;;;;;;;;5066879;28;20433;-70
2023/02/28 10:18:47;;;;;;;8.13;6.40;;;;;;;;;;5061064;28;20937;-70
2023/02/28 10:21:25;;;;;;;8.90;6.70;;;;;;;;;;5062394;28;20440;-70
2023/02/28 10:23:53;;;;;;;12.77;7.17;;;;;;;;;;5046890;28;20550;-70
2023/02/28 10:26:18;;;;;;;9.70;6.77;;;;;;;;;;5049083;28;20428;-70
2023/02/28 10:28:44;;;;;;;10.00;6.70;;;;;;;;;;5043220;28;20859;-70
2023/02/28 10:31:14;;;;;;;8.57;6.47;;;;;;;;;;5056739;28;20187;-71
2023/02/28 10:33:39;;;;;;;8.37;6.33;;;;;;;;;;5036590;28;20524;-71
2023/02/28 10:36:09;;;;;;;10.73;7.10;;;;;;;;;;5071188;28;20998;-70
2023/02/28 10:38:36;;;;;;;8.87;6.50;;;;;;;;;;5056234;28;21017;-71
2023/02/28 10:41:06;;;;;;;11.60;7.03;;;;;;;;;;5074582;28;20470;-71
2023/02/28 10:43:31;;;;;;;9.77;7.20;;;;;;;;;;5070708;28;20433;-70
2023/02/28 10:46:08;;;;;;;9.53;6.67;;;;;;;;;;5077102;28;20817;-71
2023/02/28 10:48:38;;;;;;;7.80;6.60;;;;;;;;;;5057014;28;20664;-70
2023/02/28 10:51:04;;;;;;;8.87;6.80;;;;;;;;;;5055591;28;20409;-71
2023/02/28 10:53:32;;;;;;;9.33;7.27;;;;;;;;;;5055584;28;20859;-71
2023/02/28 10:56:02;;;;;;;10.27;6.87;;;;;;;;;;5058200;28;20417;-71
2023/02/28 10:58:30;;;;;;;12.73;6.87;;;;;;;;;;5073121;28;20493;-71
2023/02/28 11:00:55;;;;;;;9.30;7.17;;;;;;;;;;5056795;28;20413;-70
2023/02/28 11:03:31;;;;;;;10.27;7.20;;;;;;;;;;5071877;28;20740;-71
2023/02/28 11:05:57;;;;;;;9.27;7.10;;;;;;;;;;5053731;28;20206;-71
2023/02/28 11:08:22;;;;;;;9.63;7.17;;;;;;;;;;5070788;28;20842;-70
2023/02/28 11:10:53;;;;;;;11.87;7.50;;;;;;;;;;5056001;28;20277;-71
2023/02/28 11:13:20;;;;;;;16.10;6.80;;;;;;;;;;5076559;28;20193;-70
2023/02/28 11:15:53;;;;;;;9.57;7.37;;;;;;;;;;5068489;28;20433;-70
2023/02/28 11:18:21;;;;;;;9.97;7.13;;;;;;;;;;5070503;28;20472;-70
2023/02/28 11:20:51;;;;;;;7.93;6.83;;;;;;;;;;5051571;28;20429;-70
2023/02/28 11:23:18;;;;;;;10.80;7.43;;;;;;;;;;5045630;28;20422;-70
2023/02/28 11:25:56;;;;;;;7.97;6.80;;;;;;;;;;5056569;28;20433;-70
2023/02/28 11:28:29;;;;;;;11.97;7.50;;;;;;;;;;5055700;28;20413;-70
2023/02/28 11:31:03;;;;;;;8.30;6.20;;;;;;;;;;5069440;28;20453;-71
2023/02/28 11:33:39;;;;;;;8.60;6.70;;;;;;;;;;5070191;28;20447;-70
2023/02/28 11:36:10;;;;;;;11.30;6.60;;;;;;;;;;5057581;28;20448;-70
2023/02/28 11:38:36;;;;;;;6.63;5.33;;;;;;;;;;5051820;28;20788;-70
2023/02/28 11:41:01;;;;;;;9.53;5.50;;;;;;;;;;5071863;28;20417;-71
2023/02/28 11:43:30;;;;;;;7.83;5.63;;;;;;;;;;5066830;28;20206;-71
2023/02/28 11:46:17;;;;;;;6.40;4.93;;;;;;;;;;5072702;28;20179;-70
2023/02/28 11:48:47;;;;;;;9.07;5.13;;;;;;;;;;5053236;28;20473;-71
2023/02/28 11:51:12;;;;;;;6.67;5.70;;;;;;;;;;5052742;28;20433;-71
2023/02/28 11:53:56;;;;;;;8.57;5.20;;;;;;;;;;5068947;28;20503;-70
2023/02/28 11:56:25;;;;;;;7.57;5.10;;;;;;;;;;5054425;28;20183;-70
2023/02/28 11:59:04;;;;;;;7.60;4.93;;;;;;;;;;5055285;28;20413;-70
2023/02/28 12:01:32;;;;;;;8.33;5.93;;;;;;;;;;5069328;28;20460;-71
2023/02/28 12:04:02;;;;;;;6.97;4.93;;;;;;;;;;5060183;28;20874;-70
2023/02/28 12:06:34;;;;;;;8.73;5.47;;;;;;;;;;5070254;28;20512;-70
2023/02/28 12:09:18;;;;;;;8.50;5.80;;;;;;;;;;5050136;28;20838;-71
2023/02/28 12:11:55;;;;;;;6.23;4.53;;;;;;;;;;5068584;28;20432;-71
2023/02/28 12:14:40;;;;;;;7.40;5.40;;;;;;;;;;5071086;28;20636;-71
2023/02/28 12:17:24;;;;;;;9.10;5.00;;;;;;;;;;5069524;28;20999;-70
2023/02/28 12:19:52;;;;;;;5.63;4.57;;;;;;;;;;5070939;28;20437;-70
2023/02/28 12:22:27;;;;;;;7.47;4.80;;;;;;;;;;5070609;28;20521;-71
2023/02/28 12:25:02;;;;;;;5.67;4.90;;;;;;;;;;5070362;28;20445;-70
2023/02/28 12:27:30;;;;;;;7.77;5.40;;;;;;;;;;5048781;28;20434;-71
2023/02/28 12:29:58;;;;;;;7.07;5.03;;;;;;;;;;5054159;28;20824;-70
2023/02/28 12:32:23;;;;;;;6.07;4.70;;;;;;;;;;5068233;28;20436;-70
2023/02/28 12:34:50;;;;;;;6.30;4.50;;;;;;;;;;5067673;28;20539;-71
2023/02/28 12:37:38;;;;;;;7.07;4.70;;;;;;;;;;5070315;28;20191;-70
2023/02/28 12:40:11;;;;;;;6.67;4.70;;;;;;;;;;5053993;28;20522;-71
2023/02/28 12:42:41;;;;;;;9.23;5.40;;;;;;;;;;5069987;28;20417;-71
2023/02/28 12:45:08;;;;;;;7.23;4.53;;;;;;;;;;5073854;28;20436;-70
2023/02/28 12:47:34;;;;;;;5.93;4.40;;;;;;;;;;5052749;28;20414;-71
2023/02/28 12:50:02;;;;;;;8.73;4.53;;;;;;;;;;5067821;28;20465;-71
2023/02/28 12:52:39;;;;;;;7.30;5.13;;;;;;;;;;5067987;28;20186;-70
2023/02/28 12:55:25;;;;;;;5.97;4.47;;;;;;;;;;5077092;28;20849;-71
2023/02/28 12:57:59;;;;;;;6.10;4.83;;;;;;;;;;5059596;28;20710;-70
2023/02/28 13:00:27;;;;;;;9.83;6.00;;;;;;;;;;5059276;28;20476;-70
2023/02/28 13:03:01;;;;;;;6.40;5.13;;;;;;;;;;5078708;28;20440;-70
2023/02/28 13:05:45;;;;;;;4.93;4.43;;;;;;;;;;5079087;28;20989;-71
2023/02/28 13:08:28;;;;;;;5.53;4.73;;;;;;;;;;5074841;28;20417;-70
2023/02/28 13:10:54;;;;;;;5.63;4.77;;;;;;;;;;5080307;28;20509;-71
2023/02/28 13:13:25;;;;;;;10.20;4.43;;;;;;;;;;5046711;28;20409;-71
2023/02/28 13:16:03;;;;;;;5.43;4.90;;;;;;;;;;5060243;28;20461;-70
2023/02/28 13:18:29;;;;;;;4.50;3.83;;;;;;;;;;5076840;28;20432;-70
2023/02/28 13:20:54;;;;;;;5.50;4.70;;;;;;;;;;5073154;28;20435;-70
2023/02/28 13:23:38;;;;;;;7.43;5.20;;;;;;;;;;5076316;28;20179;-70
2023/02/28 13:26:04;;;;;;;5.07;4.57;;;;;;;;;;5077183;28;20178;-70
2023/02/28 13:28:48;;;;;;;5.37;4.60;;;;;;;;;;5054748;28;20429;-70
2023/02/28 13:31:14;;;;;;;10.07;4.77;;;;;;;;;;5055640;28;20174;-70
2023/02/28 13:33:52;;;;;;;5.33;4.30;;;;;;;;;;5060690;28;20831;-70
2023/02/28 13:36:17;;;;;;;5.87;4.20;;;;;;;;;;5061976;28;20432;-71
2023/02/28 13:38:43;;;;;;;5.50;3.97;;;;;;;;;;5060129;28;20413;-71
2023/02/28 13:41:28;;;;;;;8.53;4.60;;;;;;;;;;5056993;28;20603;-71
2023/02/28 13:44:02;;;;;;;8.80;4.50;;;;;;;;;;5074732;28;20834;-70
2023/02/28 13:46:28;;;;;;;5.33;4.30;;;;;;;;;;5072161;28;20503;-70
2023/02/28 13:48:53;;;;;;;4.23;3.83;;;;;;;;;;5063302;28;20951;-70
2023/02/28 13:51:40;;;;;;;6.27;4.03;;;;;;;;;;5072416;28;20709;-71
2023/02/28 13:54:18;;;;;;;7.20;3.50;;;;;;;;;;5058018;28;20186;-70
2023/02/28 13:56:53;;;;;;;7.17;4.10;;;;;;;;;;5056583;28;20829;-71
2023/02/28 13:59:57;;;;;;;5.60;3.97;;;;;;;;;;5085632;28;20585;-70
2023/02/28 14:02:31;;;;;;;4.50;3.57;;;;;;;;;;4953711;28;20441;-71
2023/02/28 14:05:13;;;;;;;4.63;3.53;;;;;;;;;;4955655;28;20472;-70
2023/02/28 14:07:49;;;;;;;5.10;3.97;;;;;;;;;;5026094;28;20441;-69
2023/02/28 14:10:23;;;;;;;6.20;3.20;;;;;;;;;;5072738;28;21030;-70
2023/02/28 14:12:54;;;;;;;4.50;3.90;;;;;;;;;;5071400;28;20428;-71
2023/02/28 14:15:25;;;;;;;5.70;3.90;;;;;;;;;;5045068;28;20575;-69
2023/02/28 14:17:59;;;;;;;9.17;3.50;;;;;;;;;;5060869;28;25189;-70
2023/02/28 14:20:26;;;;;;;4.13;2.80;;;;;;;;;;5036637;28;20466;-71
2023/02/28 14:23:02;;;;;;;4.65;3.00;;;;;;;;;;5061950;28;20959;-71
2023/02/28 14:25:36;;;;;;;4.63;3.10;;;;;;;;;;5075745;28;20568;-71
2023/02/28 14:28:24;;;;;;;4.30;3.20;;;;;;;;;;5077007;28;20393;-71
2023/02/28 14:30:53;;;;;;;4.70;3.03;;;;;;;;;;5034354;28;20935;-71
2023/02/28 14:33:37;;;;;;;3.87;2.40;;;;;;;;;;5055885;28;20440;-71
2023/02/28 14:36:09;;;;;;;4.43;3.40;;;;;;;;;;5062931;28;20455;-71
2023/02/28 14:38:42;;;;;;;5.13;3.40;;;;;;;;;;5064305;28;20595;-70
2023/02/28 14:41:14;;;;;;;3.80;2.60;;;;;;;;;;5064681;28;20440;-70
2023/02/28 14:43:47;;;;;;;3.67;2.63;;;;;;;;;;5062574;28;20461;-70
2023/02/28 14:46:13;;;;;;;3.83;3.00;;;;;;;;;;5087898;28;20440;-70
2023/02/28 14:48:38;;;;;;;2.97;2.60;;;;;;;;;;5039708;28;20479;-70
2023/02/28 14:51:04;;;;;;;4.90;3.40;;;;;;;;;;5068821;28;20433;-71